Impacts TAF Board INFO
FOR SITUATIONAL AWARENESS. NOT TO BE USED FOR FLIGHT PLANNING PURPOSES.
IDs:

KDFW - Dallas-Ft Worth Intl, TX, US

Issued at 0530 UTC 19 Nov 2017
Updated at 0651 UTC 19 Nov 2017
Potential Impact None Slight Moderate High
Time0553Z 19/07Z 19/08Z 19/09Z 19/10Z 19/11Z 19/12Z 19/13Z 19/14Z 19/15Z 19/16Z 19/17Z 19/18Z 19/19Z>>
Type OBS PRVL PRVL PRVL PRVL PRVL PRVL PRVL PRVL PRVL PRVL PRVL PRVL PRVL
VIS 10 >6 >6 >6 >6 >6 >6 >6 >6 >6 >6 >6 >6 >6
CIG -- -- -- -- -- -- -- -- -- -- -- -- -- --
Cover CLR SKC SKC SKC SKC SKC SKC SKC SKC SKC SKC SKC SKC SKC
FltCat VFR VFR VFR VFR VFR VFR VFR VFR VFR VFR VFR VFR VFR VFR
WX -- -- -- -- -- -- -- -- -- -- -- -- -- --
WDir 320 330 330 330 330 330 330 330 330 330 330 330 330 330
WSpd 7 6 6 6 6 6 6 6 6 6 6 6 6 6
WGst -- -- -- -- -- -- -- -- -- -- -- -- -- --

Raw TAF
KDFW 190530Z 1906/2012 33006KT P6SM SKC
  FM200100 18006KT P6SM FEW250


Raw METAR
KDFW 190553Z 32007KT 10SM CLR 09/02 A3028 RMK AO2 SLP250 T00940017 10144 20089 402390089 50006
KDFW 190453Z 31006KT 10SM FEW250 10/02 A3028 RMK AO2 SLP252 T01000022
KDFW 190353Z 33007KT 10SM SCT200 BKN250 10/02 A3027 RMK AO2 SLP249 T01000022

METAR Board
Radar Display
Forecast Discussion

FOR SITUATIONAL AWARENESS. NOT TO BE USED FOR FLIGHT PLANNING PURPOSES.